Time;durP1;ratioP1;P1;durP2;ratioP2;P2;SDS_P1;SDS_P2;PMS_P1;PMS_P2;Temp;Humidity;BMP_temperature;BMP_pressure;BME280_temperature;BME280_humidity;BME280_pressure;Samples;Min_cycle;Max_cycle;Signal;HPM_P1;HPM_P2
2023/07/10 00:01:00;;;;;;;4.35;4.05;;;;;;;21.89;56.26;100163.09;10587905;28;20032;-73
2023/07/10 00:06:02;;;;;;;5.38;4.45;;;;;;;21.76;57.13;100159.66;10587921;28;20047;-72
2023/07/10 00:11:10;;;;;;;4.93;4.50;;;;;;;21.86;56.54;100157.97;10569438;28;20040;-73
2023/07/10 00:16:19;;;;;;;4.57;4.03;;;;;;;21.72;57.00;100158.19;10586462;28;20118;-72
2023/07/10 00:21:21;;;;;;;4.40;4.00;;;;;;;21.61;56.37;100159.00;10586450;28;20062;-74
2023/07/10 00:26:25;;;;;;;5.50;5.00;;;;;;;21.82;54.75;100157.34;10585661;28;20043;-73
2023/07/10 00:31:27;;;;;;;4.53;4.13;;;;;;;21.58;56.75;100141.38;10585829;28;20390;-73
2023/07/10 00:36:32;;;;;;;4.68;4.32;;;;;;;21.41;57.37;100144.44;10586110;28;20043;-73
2023/07/10 00:41:38;;;;;;;4.88;4.43;;;;;;;21.32;58.76;100145.16;10566627;28;20489;-73
2023/07/10 00:46:53;;;;;;;5.13;4.72;;;;;;;21.39;58.79;100146.41;10566019;28;20043;-73
2023/07/10 00:52:01;;;;;;;5.38;4.97;;;;;;;21.53;58.71;100140.00;10584214;28;20050;-73
2023/07/10 00:57:08;;;;;;;5.65;4.60;;;;;;;21.46;58.09;100136.94;10585358;28;20065;-73
2023/07/10 01:02:16;;;;;;;5.47;4.97;;;;;;;21.35;57.21;100131.56;10566020;28;20067;-74
2023/07/10 01:07:19;;;;;;;4.47;4.07;;;;;;;21.08;58.91;100129.09;10584827;28;20044;-73
2023/07/10 01:12:21;;;;;;;5.13;4.72;;;;;;;20.85;60.16;100125.41;10565662;28;20406;-74
2023/07/10 01:17:23;;;;;;;4.70;4.38;;;;;;;20.76;60.43;100134.09;10565498;28;20061;-73
2023/07/10 01:22:26;;;;;;;4.85;4.45;;;;;;;20.76;61.03;100139.44;10583543;28;20047;-73
2023/07/10 01:27:28;;;;;;;4.70;4.40;;;;;;;21.07;58.16;100141.59;10565079;28;20146;-74
2023/07/10 01:32:31;;;;;;;4.32;3.92;;;;;;;21.20;58.58;100199.47;10583279;28;20071;-73
2023/07/10 01:37:33;;;;;;;6.78;4.20;;;;;;;21.30;51.65;100299.47;10583409;28;20050;-73
2023/07/10 01:42:36;;;;;;;4.55;3.83;;;;;;;22.12;49.20;100309.44;10582017;28;20473;-73
2023/07/10 01:47:37;;;;;;;3.80;3.47;;;;;;;22.39;48.86;100295.78;10563731;28;20050;-73
2023/07/10 01:52:39;;;;;;;7.28;4.30;;;;;;;22.40;51.99;100316.25;10582912;28;20040;-74
2023/07/10 01:57:41;;;;;;;7.25;4.25;;;;;;;22.33;55.05;100293.56;10581727;28;20489;-74
2023/07/10 02:02:43;;;;;;;4.65;4.25;;;;;;;22.06;61.54;100283.13;10563355;28;20046;-72
2023/07/10 02:07:45;;;;;;;5.38;4.97;;;;;;;21.84;67.34;100222.31;10581732;28;20065;-73
2023/07/10 02:12:47;;;;;;;7.32;5.70;;;;;;;21.22;75.42;100267.06;10564134;28;20040;-72
2023/07/10 02:17:49;;;;;;;6.15;5.25;;;;;;;20.84;76.13;100279.53;10581812;28;20040;-73
2023/07/10 02:22:51;;;;;;;6.28;5.78;;;;;;;20.61;82.01;100254.44;10563965;28;20505;-74
2023/07/10 02:27:53;;;;;;;6.57;6.07;;;;;;;20.43;87.56;100234.31;10582197;28;20451;-74
2023/07/10 02:32:55;;;;;;;6.68;6.07;;;;;;;20.37;90.53;100219.59;10555759;28;20035;-74
2023/07/10 02:37:56;;;;;;;6.50;5.85;;;;;;;20.48;93.14;100224.19;10581366;28;20408;-73
2023/07/10 02:42:58;;;;;;;6.93;6.43;;;;;;;20.57;90.45;100204.84;10563085;28;20122;-73
2023/07/10 02:48:00;;;;;;;7.55;6.95;;;;;;;20.24;100.00;100197.38;10581609;28;20043;-73
2023/07/10 02:53:03;;;;;;;7.65;6.85;;;;;;;20.58;96.20;100185.19;10546198;28;20412;-74
2023/07/10 02:58:06;;;;;;;7.97;7.25;;;;;;;20.24;100.00;100181.38;10582105;28;20043;-74
2023/07/10 03:03:08;;;;;;;6.82;6.30;;;;;;;20.47;97.82;100176.22;10581382;28;20454;-74
2023/07/10 03:08:10;;;;;;;7.03;6.53;;;;;;;20.32;100.00;100191.47;10582214;28;20051;-75
2023/07/10 03:13:12;;;;;;;7.10;6.50;;;;;;;20.22;99.15;100169.91;10547895;28;20105;-73
2023/07/10 03:18:14;;;;;;;5.85;5.40;;;;;;;20.17;94.58;100159.56;10589609;28;20043;-76
2023/07/10 03:23:15;;;;;;;6.10;5.32;;;;;;;20.19;89.75;100162.16;10588689;28;20062;-74
2023/07/10 03:28:18;;;;;;;5.75;5.30;;;;;;;20.21;87.29;100149.53;10570063;28;20419;-74
2023/07/10 03:33:19;;;;;;;6.25;5.45;;;;;;;20.21;86.46;100152.19;10587843;28;20044;-74
2023/07/10 03:38:21;;;;;;;9.07;6.18;;;;;;;20.13;86.14;100143.88;10569923;28;20044;-74
2023/07/10 03:43:25;;;;;;;5.65;5.15;;;;;;;20.00;86.60;100143.03;10587862;28;20053;-74
2023/07/10 03:48:26;;;;;;;5.65;5.25;;;;;;;20.05;85.37;100143.53;10587396;28;20123;-74
2023/07/10 03:53:29;;;;;;;5.43;5.00;;;;;;;20.11;90.09;100138.66;10570337;28;20028;-74
2023/07/10 03:58:33;;;;;;;5.53;4.88;;;;;;;20.34;87.25;100146.88;10587129;28;20066;-74
2023/07/10 04:03:37;;;;;;;7.25;5.07;;;;;;;20.72;82.78;100141.50;10586813;28;20040;-74
2023/07/10 04:08:40;;;;;;;6.00;5.50;;;;;;;20.55;87.89;100134.69;10587459;28;20115;-74
2023/07/10 04:13:43;;;;;;;6.43;5.50;;;;;;;20.48;89.82;100132.56;10568046;28;20047;-74
2023/07/10 04:18:47;;;;;;;6.25;5.53;;;;;;;20.39;88.67;100140.22;10586042;28;20047;-74
2023/07/10 04:23:49;;;;;;;6.60;6.20;;;;;;;20.32;90.77;100152.31;10587810;28;20127;-74
2023/07/10 04:28:54;;;;;;;6.60;6.10;;;;;;;20.31;90.95;100158.59;10568209;28;20071;-74
2023/07/10 04:33:56;;;;;;;6.60;6.00;;;;;;;20.57;88.83;100154.13;10568104;28;20462;-74
2023/07/10 04:38:58;;;;;;;6.32;5.82;;;;;;;21.02;84.74;100143.72;10586084;28;20093;-74
2023/07/10 04:44:01;;;;;;;5.97;5.43;;;;;;;20.98;86.59;100138.72;10586065;28;20035;-75
2023/07/10 04:49:02;;;;;;;6.85;6.18;;;;;;;21.03;89.39;100133.88;10567060;28;20059;-74
2023/07/10 04:54:04;;;;;;;5.78;5.38;;;;;;;21.08;86.46;100126.41;10585300;28;20035;-74
2023/07/10 04:59:06;;;;;;;6.07;5.60;;;;;;;21.37;86.76;100119.75;10584958;28;20051;-75
2023/07/10 05:04:08;;;;;;;5.82;5.32;;;;;;;21.84;82.55;100119.78;10584832;28;20063;-74
2023/07/10 05:09:09;;;;;;;5.40;4.90;;;;;;;22.19;74.19;100114.41;10566777;28;20043;-76
2023/07/10 05:14:11;;;;;;;5.82;5.43;;;;;;;22.11;76.99;100111.44;10585170;28;20039;-74
2023/07/10 05:19:13;;;;;;;5.63;5.00;;;;;;;22.20;72.53;100102.72;10584820;28;20114;-74
2023/07/10 05:24:15;;;;;;;6.40;5.78;;;;;;;22.52;71.52;100092.09;10584393;28;20044;-75
2023/07/10 05:29:16;;;;;;;6.72;4.93;;;;;;;22.70;69.80;100096.94;10585338;28;20535;-75
2023/07/10 05:34:22;;;;;;;8.02;5.32;;;;;;;22.57;71.52;100089.88;10585208;28;20039;-75
2023/07/10 05:39:24;;;;;;;5.95;5.40;;;;;;;22.49;72.63;100083.44;10583353;28;20066;-75
2023/07/10 05:44:26;;;;;;;5.78;4.40;;;;;;;22.21;74.47;100090.16;10565556;28;20566;-73
2023/07/10 05:49:28;;;;;;;6.63;5.75;;;;;;;22.13;77.18;100085.41;10567214;28;20042;-73
2023/07/10 05:54:29;;;;;;;5.40;4.90;;;;;;;22.20;77.21;100088.47;10584218;28;20063;-74
2023/07/10 05:59:31;;;;;;;5.45;4.90;;;;;;;22.28;76.47;100100.28;10583744;28;20117;-74
2023/07/10 06:04:33;;;;;;;5.43;5.03;;;;;;;22.17;75.86;100106.47;10583006;28;20035;-74
2023/07/10 06:09:35;;;;;;;6.03;5.53;;;;;;;22.07;75.77;100144.78;10584262;28;20099;-73
2023/07/10 06:14:37;;;;;;;7.22;6.03;;;;;;;21.52;77.43;100207.84;10565341;28;20047;-73
2023/07/10 06:19:38;;;;;;;6.43;5.25;;;;;;;21.76;72.53;100167.69;10565009;28;20092;-73
2023/07/10 06:24:40;;;;;;;5.40;5.00;;;;;;;21.86;71.69;100139.25;10583347;28;20066;-74
2023/07/10 06:29:42;;;;;;;5.72;5.13;;;;;;;22.28;71.35;100132.41;10565887;28;20043;-74
2023/07/10 06:34:44;;;;;;;8.70;4.82;;;;;;;22.25;70.28;100126.44;10584684;28;20085;-73
2023/07/10 06:40:03;;;;;;;5.75;5.13;;;;;;;22.79;66.10;100139.91;10584908;28;20039;-73
2023/07/10 06:45:06;;;;;;;7.13;5.18;;;;;;;23.26;64.32;100134.38;10565777;28;20479;-73
2023/07/10 06:50:10;;;;;;;5.28;4.88;;;;;;;23.75;61.48;100125.75;10587154;28;20043;-74
2023/07/10 06:55:16;;;;;;;4.85;4.35;;;;;;;24.12;59.73;100112.66;10572620;28;20067;-73
2023/07/10 07:00:18;;;;;;;;;;;;;;;24.27;60.51;100115.03;10572483;28;20105;-74
2023/07/10 07:05:20;;;;;;;6.20;5.53;;;;;;;24.46;59.32;100115.13;10572557;28;20326;-74
2023/07/10 07:10:22;;;;;;;5.93;4.80;;;;;;;24.60;61.25;100098.63;10591339;28;20374;-74
2023/07/10 07:15:24;;;;;;;12.65;4.82;;;;;;;24.86;59.27;100076.59;10590345;28;20039;-74
2023/07/10 07:20:26;;;;;;;5.82;5.32;;;;;;;25.21;60.00;100062.66;10589641;28;20040;-74
2023/07/10 07:25:29;;;;;;;5.70;5.13;;;;;;;25.44;56.78;100052.44;10589749;28;20111;-74
2023/07/10 07:30:32;;;;;;;4.78;4.47;;;;;;;25.56;56.50;100045.91;10570560;28;20059;-73
2023/07/10 07:35:36;;;;;;;5.45;4.80;;;;;;;25.97;55.73;100040.28;10570348;28;20044;-73
2023/07/10 07:40:38;;;;;;;5.53;4.35;;;;;;;26.13;55.24;100041.38;10570997;28;20044;-73
2023/07/10 07:45:49;;;;;;;4.53;4.13;;;;;;;26.37;53.57;100034.56;10569604;28;20443;-73
2023/07/10 07:50:59;;;;;;;5.45;3.67;;;;;;;26.67;51.68;100049.63;10589552;28;20040;-73
2023/07/10 07:56:01;;;;;;;5.90;5.05;;;;;;;27.07;50.82;100056.44;10570240;28;20505;-73
2023/07/10 08:01:04;;;;;;;5.15;4.55;;;;;;;27.50;51.12;100058.34;10569332;28;20126;-73
2023/07/10 08:06:06;;;;;;;4.68;4.28;;;;;;;27.79;47.70;100046.41;10587811;28;20069;-71
2023/07/10 08:11:09;;;;;;;5.00;3.65;;;;;;;28.15;48.03;100039.00;10587365;28;20067;-73
2023/07/10 08:16:11;;;;;;;4.07;3.78;;;;;;;28.47;46.13;100034.81;10591552;28;20039;-72
2023/07/10 08:21:14;;;;;;;4.32;3.92;;;;;;;28.69;45.66;100039.59;10589109;28;20105;-72
2023/07/10 08:26:17;;;;;;;4.72;4.32;;;;;;;29.18;43.61;100036.97;10590405;28;20112;-72
2023/07/10 08:31:19;;;;;;;10.70;4.20;;;;;;;29.65;42.00;100026.28;10588130;28;20516;-72
2023/07/10 08:36:21;;;;;;;3.60;3.30;;;;;;;29.87;42.50;100029.28;10576990;28;20043;-71
2023/07/10 08:41:26;;;;;;;4.10;3.70;;;;;;;30.17;43.41;100016.03;10595355;28;20040;-72
2023/07/10 08:46:30;;;;;;;4.95;4.07;;;;;;;30.80;41.70;99998.75;10596663;28;20032;-72
2023/07/10 08:52:03;;;;;;;3.83;3.53;;;;;;;31.46;40.64;99988.22;10594045;28;20040;-72
2023/07/10 08:57:30;;;;;;;4.33;3.93;;;;;;;31.22;41.05;99976.53;10586071;28;20059;-72
2023/07/10 09:03:05;;;;;;;4.47;4.03;;;;;;;31.00;41.66;99970.09;10593465;28;20108;-72
2023/07/10 09:08:14;;;;;;;4.45;3.97;;;;;;;30.80;41.11;99988.72;10592547;28;20048;-72
2023/07/10 09:13:23;;;;;;;3.63;3.33;;;;;;;30.56;42.36;99978.03;10591017;28;20040;-71
2023/07/10 09:18:50;;;;;;;4.30;3.80;;;;;;;30.32;41.46;99979.84;10590934;28;20118;-73
2023/07/10 09:23:52;;;;;;;5.43;4.93;;;;;;;30.03;44.22;99980.47;10588378;28;20040;-72
2023/07/10 09:29:14;;;;;;;6.50;3.90;;;;;;;30.19;44.30;99997.69;10593146;28;20094;-71
2023/07/10 09:34:21;;;;;;;5.38;4.30;;;;;;;29.82;43.42;99994.59;10592697;28;20055;-73
2023/07/10 09:39:32;;;;;;;4.63;4.25;;;;;;;30.22;43.08;100000.91;10592801;28;20096;-72
2023/07/10 09:44:44;;;;;;;5.28;4.50;;;;;;;30.46;41.73;100010.81;10592744;28;20044;-73
2023/07/10 09:49:53;;;;;;;4.65;4.25;;;;;;;31.49;40.33;100007.69;10596241;28;20074;-72
2023/07/10 09:55:10;;;;;;;6.90;4.38;;;;;;;31.92;38.41;100001.66;10592171;28;20039;-72
2023/07/10 10:00:18;;;;;;;4.43;4.03;;;;;;;32.10;39.00;100000.25;10569888;28;20054;-73
2023/07/10 10:05:21;;;;;;;4.63;4.20;;;;;;;32.77;39.59;99995.63;10582504;28;20127;-73
2023/07/10 10:11:01;;;;;;;4.32;3.90;;;;;;;32.60;37.75;99992.31;10583111;28;20045;-73
2023/07/10 10:16:09;;;;;;;4.95;4.63;;;;;;;32.72;37.57;99979.00;10371156;28;20058;-73
2023/07/10 10:21:14;;;;;;;4.43;3.85;;;;;;;32.96;37.70;99980.53;10372429;28;20081;-73
2023/07/10 10:26:34;;;;;;;6.10;3.95;;;;;;;32.92;37.96;99993.69;10379488;28;20068;-71
2023/07/10 10:31:48;;;;;;;9.23;4.68;;;;;;;32.37;38.89;99978.84;10379747;28;20141;-71
2023/07/10 10:37:07;;;;;;;6.33;4.60;;;;;;;32.09;39.27;99981.41;10379797;28;20106;-71
2023/07/10 10:42:23;;;;;;;6.18;4.32;;;;;;;32.32;37.13;99979.41;10378781;28;20038;-72
2023/07/10 10:47:54;;;;;;;5.32;4.45;;;;;;;32.48;37.21;99978.34;10379234;28;20066;-71
2023/07/10 10:53:17;;;;;;;4.80;4.25;;;;;;;32.27;38.08;99978.28;10530411;28;20090;-71
2023/07/10 10:58:35;;;;;;;5.28;4.78;;;;;;;31.78;36.82;99989.72;10590733;28;20482;-72
2023/07/10 11:03:44;;;;;;;11.40;4.97;;;;;;;31.72;37.76;99994.03;10591008;28;20046;-71
2023/07/10 11:08:50;;;;;;;10.20;6.10;;;;;;;31.32;39.82;100001.56;10589775;28;20085;-72
2023/07/10 11:13:52;;;;;;;7.28;6.53;;;;;;;31.23;40.19;100008.06;10589989;28;20429;-72
2023/07/10 11:18:55;;;;;;;8.55;6.18;;;;;;;32.38;36.60;99999.59;10589749;28;20044;-73
2023/07/10 11:23:57;;;;;;;12.80;6.82;;;;;;;32.54;38.22;100006.66;10591991;28;20481;-72
2023/07/10 11:29:29;;;;;;;10.85;5.90;;;;;;;32.38;36.34;100008.59;10589110;28;20036;-72
2023/07/10 11:34:37;;;;;;;7.15;6.45;;;;;;;32.68;36.56;100008.50;10588716;28;20047;-74
2023/07/10 11:39:41;;;;;;;7.22;6.53;;;;;;;32.04;37.35;100005.59;10570163;28;20043;-71
2023/07/10 11:44:51;;;;;;;11.50;6.38;;;;;;;32.28;37.52;100007.19;10587719;28;20043;-73
2023/07/10 11:49:54;;;;;;;6.68;5.78;;;;;;;32.60;35.87;100000.47;10590062;27;20067;-74
2023/07/10 11:54:56;;;;;;;12.68;5.30;;;;;;;32.65;36.59;100011.63;10630367;27;20031;-74
2023/07/10 12:00:00;;;;;;;6.57;6.03;;;;;;;32.89;37.26;100008.53;10614522;27;20035;-74
2023/07/10 12:05:25;;;;;;;5.95;5.32;;;;;;;33.28;37.63;100014.56;10587421;28;20063;-74
2023/07/10 12:10:31;;;;;;;6.30;5.70;;;;;;;33.11;37.50;100003.09;10588117;28;20047;-74
2023/07/10 12:15:36;;;;;;;6.75;6.15;;;;;;;32.45;37.84;100013.25;10589778;27;20096;-75
2023/07/10 12:20:38;;;;;;;;;;;;;;;32.43;37.32;100016.19;10630261;27;20063;-73
2023/07/10 12:25:54;;;;;;;5.93;5.30;;;;;;;32.33;36.64;100010.16;10610990;27;19969;-73
2023/07/10 12:30:58;;;;;;;6.35;5.75;;;;;;;32.49;36.84;100020.00;10629396;27;20469;-74
2023/07/10 12:36:03;;;;;;;5.35;4.85;;;;;;;32.80;37.38;100020.56;10628413;27;20089;-74
2023/07/10 12:41:07;;;;;;;6.75;5.57;;;;;;;32.87;37.30;100034.25;10610266;27;20508;-74
2023/07/10 12:46:20;;;;;;;6.78;6.05;;;;;;;33.04;37.03;100033.00;10595708;27;20477;-74
2023/07/10 12:51:32;;;;;;;10.47;5.03;;;;;;;33.19;37.51;100051.16;10586675;28;20039;-75
2023/07/10 12:56:37;;;;;;;7.05;5.10;;;;;;;32.45;38.57;100046.78;10543783;28;20119;-75
2023/07/10 13:01:47;;;;;;;5.88;5.38;;;;;;;32.01;39.24;100046.75;10547110;27;20093;-74
2023/07/10 13:07:03;;;;;;;6.28;5.63;;;;;;;32.32;39.71;100049.28;10575542;27;20053;-74
2023/07/10 13:12:35;;;;;;;8.52;7.72;;;;;;;31.51;39.86;100053.69;10591628;27;20044;-74
2023/07/10 13:17:37;;;;;;;10.82;9.82;;;;;;;30.85;42.21;100056.88;10585069;28;20040;-74
2023/07/10 13:22:39;;;;;;;10.55;9.82;;;;;;;31.05;41.77;100048.28;10585109;28;20145;-73
2023/07/10 13:27:41;;;;;;;9.80;8.88;;;;;;;30.55;43.57;100049.59;10583469;28;20085;-74
2023/07/10 13:32:43;;;;;;;10.77;9.88;;;;;;;30.51;44.33;100048.25;10584476;28;20119;-74
2023/07/10 13:37:45;;;;;;;9.50;8.82;;;;;;;30.18;44.84;100045.66;10584572;28;20077;-73
2023/07/10 13:42:47;;;;;;;6.60;6.00;;;;;;;29.80;45.41;100044.56;10583953;28;20138;-74
2023/07/10 13:47:50;;;;;;;5.80;5.30;;;;;;;29.77;45.98;100053.03;10583505;28;20451;-72
2023/07/10 13:52:52;;;;;;;10.52;5.45;;;;;;;30.00;45.83;100048.56;10583862;28;20085;-72
2023/07/10 13:57:54;;;;;;;6.40;4.68;;;;;;;30.29;44.84;100072.41;10582781;28;20114;-73
2023/07/10 14:02:55;;;;;;;5.22;4.57;;;;;;;30.23;45.14;100073.09;10583360;28;20118;-74
2023/07/10 14:07:57;;;;;;;5.93;4.25;;;;;;;30.31;45.95;100083.91;10583222;28;20044;-73
2023/07/10 14:12:59;;;;;;;4.25;3.95;;;;;;;29.88;45.83;100098.72;10583685;28;20038;-73
2023/07/10 14:18:01;;;;;;;4.22;3.83;;;;;;;29.49;47.38;100104.84;10584483;28;20043;-73
2023/07/10 14:23:12;;;;;;;4.40;4.00;;;;;;;29.29;48.87;100123.25;10583329;28;20036;-74
2023/07/10 14:28:19;;;;;;;4.38;3.97;;;;;;;29.17;49.80;100127.31;10582635;28;20052;-74
2023/07/10 14:33:22;;;;;;;5.35;4.07;;;;;;;29.19;49.25;100136.13;10564162;28;20378;-73
2023/07/10 14:38:27;;;;;;;4.95;3.67;;;;;;;29.60;49.06;100128.91;10564746;28;20047;-74
2023/07/10 14:43:29;;;;;;;5.35;4.28;;;;;;;30.03;47.80;100132.25;10583022;28;20057;-74
2023/07/10 14:48:31;;;;;;;5.32;4.93;;;;;;;30.10;47.98;100152.22;10582996;28;20043;-73
2023/07/10 14:53:32;;;;;;;8.65;8.00;;;;;;;29.81;48.24;100149.22;10565045;28;20447;-73
2023/07/10 14:58:34;;;;;;;10.95;9.88;;;;;;;29.15;48.51;100168.06;10564580;28;20655;-73
2023/07/10 15:03:36;;;;;;;9.65;9.00;;;;;;;28.82;49.37;100171.66;10583742;28;20036;-74
2023/07/10 15:08:38;;;;;;;6.90;6.32;;;;;;;28.65;50.39;100177.00;10582096;28;20044;-74
2023/07/10 15:13:40;;;;;;;5.75;5.30;;;;;;;28.75;50.04;100178.75;10570131;28;20043;-73
2023/07/10 15:18:41;;;;;;;4.80;4.40;;;;;;;28.17;51.71;100189.19;10570501;28;20051;-74
2023/07/10 15:23:44;;;;;;;5.25;4.95;;;;;;;27.51;52.77;100208.53;10589327;28;20035;-72
2023/07/10 15:28:45;;;;;;;4.53;4.22;;;;;;;27.32;53.18;100214.06;10589824;28;20085;-74
2023/07/10 15:33:47;;;;;;;4.35;3.97;;;;;;;27.03;54.10;100206.13;10570943;28;20126;-74
2023/07/10 15:38:50;;;;;;;4.80;4.30;;;;;;;27.56;53.43;100205.38;10588617;28;20100;-74
2023/07/10 15:43:52;;;;;;;3.90;3.60;;;;;;;28.39;51.17;100197.81;10569765;28;20088;-74
2023/07/10 15:48:54;;;;;;;4.68;3.65;;;;;;;28.24;50.65;100210.19;10587648;28;20215;-75
2023/07/10 15:53:56;;;;;;;3.83;3.53;;;;;;;28.13;49.91;100206.72;10587595;28;20413;-73
2023/07/10 15:58:57;;;;;;;3.53;3.28;;;;;;;27.77;50.75;100205.09;10588236;28;20048;-73
2023/07/10 16:03:59;;;;;;;3.90;3.60;;;;;;;27.89;49.77;100195.72;10587788;28;20035;-74
2023/07/10 16:09:08;;;;;;;3.58;2.55;;;;;;;28.12;49.01;100194.22;10587156;28;20046;-74
2023/07/10 16:14:16;;;;;;;3.20;2.80;;;;;;;27.96;48.87;100188.69;10588325;28;20461;-74
2023/07/10 16:19:18;;;;;;;4.35;3.80;;;;;;;27.83;49.26;100188.25;10587281;28;20035;-73
2023/07/10 16:24:20;;;;;;;3.88;3.58;;;;;;;26.96;49.91;100184.31;10586433;28;20040;-75
2023/07/10 16:29:22;;;;;;;3.70;3.33;;;;;;;26.76;50.81;100188.09;10586646;28;20047;-73
2023/07/10 16:34:24;;;;;;;4.32;4.00;;;;;;;27.10;50.15;100189.22;10586975;28;20063;-73
2023/07/10 16:39:27;;;;;;;3.58;3.28;;;;;;;27.02;50.29;100183.69;10586838;28;20485;-74
2023/07/10 16:44:28;;;;;;;4.07;3.70;;;;;;;26.94;51.22;100177.34;10586622;28;20066;-73
2023/07/10 16:49:30;;;;;;;3.47;3.17;;;;;;;27.12;49.82;100180.97;10584959;28;20100;-74
2023/07/10 16:54:32;;;;;;;3.50;3.20;;;;;;;26.75;50.81;100181.84;10586384;28;20066;-73
2023/07/10 16:59:34;;;;;;;4.13;3.78;;;;;;;26.83;50.59;100179.25;10596155;27;20071;-74
2023/07/10 17:04:36;;;;;;;3.35;2.78;;;;;;;26.60;50.40;100191.41;10619553;27;20046;-75
2023/07/10 17:09:37;;;;;;;4.28;3.05;;;;;;;26.55;50.81;100186.44;10587650;27;20071;-73
2023/07/10 17:14:39;;;;;;;4.03;3.10;;;;;;;26.71;50.12;100198.47;10585231;28;20123;-74
2023/07/10 17:19:41;;;;;;;3.20;2.95;;;;;;;26.66;50.16;100197.06;10567015;28;20044;-74
2023/07/10 17:24:43;;;;;;;3.00;2.50;;;;;;;26.59;50.69;100189.72;10584580;28;20042;-75
2023/07/10 17:29:45;;;;;;;3.13;2.72;;;;;;;26.58;50.20;100191.56;10585197;28;20040;-75
2023/07/10 17:34:47;;;;;;;3.25;2.97;;;;;;;26.45;49.72;100188.34;10584376;28;20427;-73
2023/07/10 17:39:49;;;;;;;3.58;3.28;;;;;;;26.00;50.70;100186.31;10584903;28;20039;-74
2023/07/10 17:44:51;;;;;;;2.42;2.22;;;;;;;26.11;50.77;100194.19;10584854;28;20455;-75
2023/07/10 17:49:53;;;;;;;2.97;2.70;;;;;;;26.04;50.96;100193.09;10584386;28;20078;-75
2023/07/10 17:54:55;;;;;;;3.13;2.72;;;;;;;25.80;51.65;100181.91;10566698;28;20492;-75
2023/07/10 17:59:57;;;;;;;3.17;2.88;;;;;;;25.52;52.63;100191.69;10583538;28;20111;-74
2023/07/10 18:04:59;;;;;;;3.65;3.05;;;;;;;25.37;52.72;100202.84;10583748;28;20036;-74
2023/07/10 18:10:01;;;;;;;3.45;3.15;;;;;;;25.35;52.96;100198.59;10582936;28;20376;-75
2023/07/10 18:15:17;;;;;;;3.67;3.13;;;;;;;25.49;52.46;100206.25;10564512;28;20048;-74
2023/07/10 18:20:19;;;;;;;2.78;2.58;;;;;;;25.55;53.05;100210.25;10583316;28;20039;-74
2023/07/10 18:25:21;;;;;;;2.53;2.33;;;;;;;25.63;52.82;100219.31;10583076;28;20126;-74
2023/07/10 18:30:23;;;;;;;3.28;2.97;;;;;;;25.41;53.89;100212.34;10582405;28;20096;-74
2023/07/10 18:35:24;;;;;;;5.63;2.72;;;;;;;25.15;55.49;100208.47;10583693;28;20075;-74
2023/07/10 18:40:26;;;;;;;3.60;3.25;;;;;;;25.06;55.55;100210.13;10584874;28;20047;-75
2023/07/10 18:45:28;;;;;;;3.38;3.08;;;;;;;25.14;55.38;100214.81;10588156;28;20497;-74
2023/07/10 18:50:31;;;;;;;2.85;2.65;;;;;;;24.90;56.39;100213.31;10575900;28;20047;-75
2023/07/10 18:55:33;;;;;;;3.42;3.10;;;;;;;25.05;55.58;100216.47;10592000;28;20097;-74
2023/07/10 19:00:36;;;;;;;4.07;2.92;;;;;;;24.99;55.51;100218.88;10573040;28;20050;-75
2023/07/10 19:05:38;;;;;;;3.35;3.08;;;;;;;24.86;55.31;100219.97;10589626;28;20039;-75
2023/07/10 19:10:40;;;;;;;5.78;3.00;;;;;;;24.73;55.49;100237.31;10591201;28;20050;-75
2023/07/10 19:15:42;;;;;;;4.03;3.38;;;;;;;24.62;55.96;100233.72;10589787;28;20096;-75
2023/07/10 19:20:44;;;;;;;3.47;2.60;;;;;;;24.51;56.28;100239.19;10591583;28;20047;-75
2023/07/10 19:25:47;;;;;;;2.95;2.55;;;;;;;24.31;57.10;100246.25;10589358;28;20050;-75
2023/07/10 19:30:53;;;;;;;3.22;2.92;;;;;;;24.18;57.25;100248.28;10554872;28;20097;-75
2023/07/10 19:35:56;;;;;;;3.25;2.95;;;;;;;24.02;58.51;100245.19;10562433;28;20043;-75
2023/07/10 19:41:00;;;;;;;3.55;3.25;;;;;;;23.97;59.00;100255.47;10572337;28;20446;-75
2023/07/10 19:46:03;;;;;;;3.83;3.03;;;;;;;23.67;60.36;100254.34;10570554;28;20139;-74
2023/07/10 19:51:06;;;;;;;3.65;3.28;;;;;;;23.45;62.13;100263.28;10588610;28;20040;-75
2023/07/10 19:56:19;;;;;;;2.72;2.50;;;;;;;23.53;61.27;100259.97;10587102;28;20493;-75
2023/07/10 20:01:21;;;;;;;4.63;3.17;;;;;;;23.59;60.70;100259.47;10571110;28;20475;-75
2023/07/10 20:06:30;;;;;;;3.15;2.80;;;;;;;23.46;60.79;100267.66;10588596;28;20063;-75
2023/07/10 20:11:32;;;;;;;2.92;2.72;;;;;;;23.37;61.00;100261.25;10588294;28;20043;-76
2023/07/10 20:16:34;;;;;;;3.90;2.88;;;;;;;23.31;60.84;100266.25;10588341;28;20043;-75
2023/07/10 20:21:36;;;;;;;4.45;2.80;;;;;;;23.24;61.01;100271.28;10587934;28;20050;-74
2023/07/10 20:26:39;;;;;;;3.90;2.50;;;;;;;22.94;62.00;100274.59;10587006;28;20085;-74
2023/07/10 20:31:41;;;;;;;3.28;2.97;;;;;;;22.80;62.39;100275.66;10587550;28;20044;-74
2023/07/10 20:36:44;;;;;;;3.50;3.15;;;;;;;22.78;62.09;100274.91;10587643;28;20065;-74
2023/07/10 20:41:46;;;;;;;3.60;3.30;;;;;;;22.71;62.33;100281.72;10586566;28;20043;-74
2023/07/10 20:46:52;;;;;;;4.18;3.35;;;;;;;22.63;62.47;100281.47;10586469;28;20036;-74
2023/07/10 20:51:55;;;;;;;5.22;3.20;;;;;;;22.67;62.72;100274.91;10587102;28;20047;-76
2023/07/10 20:56:57;;;;;;;3.60;3.10;;;;;;;22.61;62.85;100278.03;10586512;28;20534;-74
2023/07/10 21:01:59;;;;;;;3.47;3.20;;;;;;;22.54;63.31;100276.84;10584782;28;20062;-75
2023/07/10 21:07:14;;;;;;;3.78;3.47;;;;;;;22.48;63.47;100272.78;10583699;28;20044;-74
2023/07/10 21:12:18;;;;;;;5.88;3.30;;;;;;;22.34;63.87;100283.72;10566638;28;20142;-74
2023/07/10 21:17:24;;;;;;;3.20;2.90;;;;;;;22.36;63.94;100288.00;10584792;28;20497;-74
2023/07/10 21:22:26;;;;;;;3.08;2.80;;;;;;;22.28;63.65;100286.88;10566962;28;20047;-74
2023/07/10 21:27:29;;;;;;;6.70;3.75;;;;;;;22.25;63.77;100287.94;10583795;28;20405;-74
2023/07/10 21:32:31;;;;;;;3.70;3.40;;;;;;;22.20;64.03;100290.13;10583841;28;20039;-75
2023/07/10 21:37:33;;;;;;;4.07;2.90;;;;;;;22.12;64.59;100298.75;10565623;28;20040;-74
2023/07/10 21:42:36;;;;;;;3.97;3.35;;;;;;;22.02;65.17;100292.34;10583402;28;20047;-75
2023/07/10 21:47:37;;;;;;;2.97;2.72;;;;;;;21.81;65.98;100296.63;10582741;28;20416;-75
2023/07/10 21:52:39;;;;;;;3.33;3.03;;;;;;;21.63;67.69;100296.16;10583484;28;20039;-74
2023/07/10 21:57:41;;;;;;;3.30;3.00;;;;;;;21.70;67.02;100297.44;10582786;28;20035;-75
2023/07/10 22:02:44;;;;;;;6.68;3.40;;;;;;;21.54;67.88;100302.19;10564578;28;20116;-75
2023/07/10 22:07:46;;;;;;;3.53;3.22;;;;;;;21.52;68.14;100305.00;10582325;28;20118;-75
2023/07/10 22:12:48;;;;;;;3.65;3.35;;;;;;;21.60;67.42;100299.06;10582191;28;20121;-75
2023/07/10 22:17:50;;;;;;;3.30;3.00;;;;;;;21.65;67.67;100300.44;10582241;28;20111;-75
2023/07/10 22:22:52;;;;;;;3.15;2.95;;;;;;;21.48;68.46;100298.16;10590515;28;20047;-74
2023/07/10 22:27:53;;;;;;;3.40;3.10;;;;;;;21.34;69.24;100295.63;10591143;28;20059;-74
2023/07/10 22:32:56;;;;;;;3.35;3.05;;;;;;;21.48;69.21;100292.81;10590761;28;20171;-75
2023/07/10 22:37:58;;;;;;;4.72;3.60;;;;;;;21.50;69.49;100295.34;10590115;28;20122;-74
2023/07/10 22:43:00;;;;;;;4.30;3.90;;;;;;;21.34;70.45;100296.50;10590301;28;20082;-74
2023/07/10 22:48:04;;;;;;;4.28;3.65;;;;;;;21.13;72.34;100292.66;10589965;28;20044;-75
2023/07/10 22:53:07;;;;;;;4.43;3.35;;;;;;;21.08;71.99;100295.66;10572146;28;20071;-75
2023/07/10 22:58:09;;;;;;;3.85;3.50;;;;;;;21.00;72.63;100286.47;10571526;28;20201;-74
2023/07/10 23:03:11;;;;;;;3.53;3.22;;;;;;;21.16;72.08;100281.72;10588988;28;20050;-75
2023/07/10 23:08:13;;;;;;;3.75;3.45;;;;;;;21.26;71.40;100287.28;10588823;28;20386;-75
2023/07/10 23:13:15;;;;;;;6.20;3.33;;;;;;;21.10;71.82;100284.84;10589511;28;20043;-75
2023/07/10 23:18:16;;;;;;;3.47;3.17;;;;;;;21.13;71.44;100280.13;10590398;28;20089;-74